Inks Lake Village, Texas
Current Conditions -  °F | °C
As of 3:55 PM on Tuesday 25 Nov 2014 (Local Time) from KAQO Reporting Station
Clear Clear  
Wind Chill: 64°   Ceiling: Unl
Heat Index: 64°   Visibility: 10mi
Dew Point: 27°   Wind: 6mph
Humidity: 24%   Direction: 300°WNW
Pressure: 30.23"   Gusts: NA
Location:  30.7573°N, 98.4911°W
Report Text: KAQO 252155Z AUTO 30005KT 10SM CLR 18/M03 A3023 RMK AO2
Loading
Personal Weather Stations






























Interactive Weather Map New forecast layout! Learn more

10-Day Weather Forecast

Advertisements
Track Severe Weather on mobile